createdAt,value
2023-10-15T00:00:00.864Z,101710
2023-10-15T00:01:00.876Z,101700
2023-10-15T00:02:00.820Z,101700
2023-10-15T00:03:00.875Z,101710
2023-10-15T00:04:00.819Z,101710
2023-10-15T00:05:00.807Z,101710
2023-10-15T00:06:00.804Z,101710
2023-10-15T00:07:00.768Z,101700
2023-10-15T00:08:00.837Z,101700
2023-10-15T00:09:00.786Z,101700
2023-10-15T00:10:00.802Z,101710
2023-10-15T00:11:00.975Z,101700
2023-10-15T00:12:00.776Z,101700
2023-10-15T00:13:00.924Z,101700
2023-10-15T00:14:00.770Z,101700
2023-10-15T00:15:00.786Z,101700
2023-10-15T00:16:00.966Z,101700
2023-10-15T00:17:00.850Z,101700
2023-10-15T00:18:02.293Z,101700
2023-10-15T00:19:00.884Z,101700
2023-10-15T00:20:00.914Z,101700
2023-10-15T00:21:00.783Z,101700
2023-10-15T00:22:02.526Z,101700
2023-10-15T00:23:01.221Z,101690
2023-10-15T00:24:00.762Z,101700
2023-10-15T00:25:00.759Z,101700
2023-10-15T00:26:00.827Z,101690
2023-10-15T00:27:00.740Z,101690
2023-10-15T00:28:00.852Z,101690
2023-10-15T00:29:01.029Z,101690
2023-10-15T00:30:00.810Z,101690
2023-10-15T00:31:00.829Z,101690
2023-10-15T00:32:00.827Z,101690
2023-10-15T00:33:01.385Z,101690
2023-10-15T00:34:00.781Z,101690
2023-10-15T00:35:00.894Z,101690
2023-10-15T00:36:00.811Z,101690
2023-10-15T00:37:01.048Z,101690
2023-10-15T00:38:01.720Z,101690
2023-10-15T00:39:00.815Z,101690
2023-10-15T00:40:00.829Z,101690
2023-10-15T00:41:00.827Z,101690
2023-10-15T00:42:00.771Z,101690
2023-10-15T00:43:00.776Z,101690
2023-10-15T00:44:00.929Z,101700
2023-10-15T00:45:00.758Z,101700
2023-10-15T00:46:01.996Z,101700
2023-10-15T00:47:00.906Z,101700
2023-10-15T00:48:00.871Z,101690
2023-10-15T00:49:00.787Z,101700
2023-10-15T00:50:01.787Z,101690
2023-10-15T00:51:01.700Z,101700
2023-10-15T00:52:00.793Z,101690
2023-10-15T00:53:02.674Z,101700
2023-10-15T00:54:00.786Z,101700
2023-10-15T00:55:01.616Z,101700
2023-10-15T00:56:01.135Z,101700
2023-10-15T00:57:00.846Z,101700
2023-10-15T00:58:02.670Z,101700
2023-10-15T00:59:01.463Z,101690
2023-10-15T01:00:01.046Z,101690
2023-10-15T01:01:01.518Z,101690
2023-10-15T01:02:00.848Z,101690
2023-10-15T01:03:01.154Z,101690
2023-10-15T01:04:01.384Z,101690
2023-10-15T01:05:00.939Z,101690
2023-10-15T01:06:01.075Z,101690
2023-10-15T01:07:02.304Z,101690
2023-10-15T01:08:00.825Z,101680
2023-10-15T01:09:04.246Z,101680
2023-10-15T01:10:00.749Z,101680
2023-10-15T01:11:08.831Z,101680
2023-10-15T01:12:00.804Z,101680
2023-10-15T01:13:00.762Z,101680
2023-10-15T01:14:00.789Z,101670
2023-10-15T01:15:00.812Z,101670
2023-10-15T01:16:00.921Z,101680
2023-10-15T01:17:01.357Z,101670
2023-10-15T01:18:00.782Z,101670
2023-10-15T01:19:00.808Z,101670
2023-10-15T01:20:00.874Z,101670
2023-10-15T01:21:00.814Z,101670
2023-10-15T01:22:01.741Z,101670
2023-10-15T01:23:00.831Z,101660
2023-10-15T01:24:00.823Z,101660
2023-10-15T01:25:06.962Z,101660
2023-10-15T01:26:00.929Z,101650
2023-10-15T01:27:01.678Z,101650
2023-10-15T01:28:00.971Z,101650
2023-10-15T01:29:00.887Z,101650
2023-10-15T01:30:00.768Z,101650
2023-10-15T01:31:00.859Z,101660
2023-10-15T01:32:01.296Z,101660
2023-10-15T01:33:00.818Z,101660
2023-10-15T01:34:00.967Z,101660
2023-10-15T01:35:00.896Z,101660
2023-10-15T01:36:00.802Z,101650
2023-10-15T01:37:00.802Z,101650
2023-10-15T01:38:00.883Z,101650
2023-10-15T01:39:00.861Z,101650
2023-10-15T01:40:00.824Z,101650
2023-10-15T01:41:04.149Z,101650
2023-10-15T01:42:00.805Z,101640
2023-10-15T01:43:00.783Z,101640
2023-10-15T01:44:00.780Z,101640
2023-10-15T01:45:01.422Z,101640
2023-10-15T01:46:00.797Z,101640
2023-10-15T01:47:00.870Z,101640
2023-10-15T01:48:00.827Z,101640
2023-10-15T01:49:00.788Z,101640
2023-10-15T01:50:00.852Z,101640
2023-10-15T01:51:03.951Z,101640
2023-10-15T01:52:01.516Z,101640
2023-10-15T01:53:00.851Z,101640
2023-10-15T01:54:00.787Z,101640
2023-10-15T01:55:00.734Z,101640
2023-10-15T01:56:01.493Z,101640
2023-10-15T01:57:01.064Z,101640
2023-10-15T01:58:00.781Z,101640
2023-10-15T01:59:00.848Z,101640
2023-10-15T02:00:00.849Z,101640
2023-10-15T02:01:01.812Z,101640
2023-10-15T02:02:00.900Z,101640
2023-10-15T02:03:00.973Z,101640
2023-10-15T02:04:00.988Z,101640
2023-10-15T02:05:00.813Z,101640
2023-10-15T02:06:04.299Z,101640
2023-10-15T02:07:00.803Z,101640
2023-10-15T02:08:00.917Z,101640
2023-10-15T02:09:00.901Z,101640
2023-10-15T02:10:00.802Z,101640
2023-10-15T02:11:08.141Z,101630
2023-10-15T02:12:00.809Z,101640
2023-10-15T02:13:00.758Z,101630
2023-10-15T02:14:01.361Z,101640
2023-10-15T02:15:00.799Z,101640
2023-10-15T02:16:02.140Z,101640
2023-10-15T02:17:00.969Z,101640
2023-10-15T02:18:00.942Z,101640
2023-10-15T02:19:00.775Z,101640
2023-10-15T02:20:00.830Z,101630
2023-10-15T02:21:00.762Z,101640
2023-10-15T02:22:01.312Z,101630
2023-10-15T02:23:00.883Z,101630
2023-10-15T02:24:00.738Z,101630
2023-10-15T02:25:00.774Z,101630
2023-10-15T02:26:01.428Z,101630
2023-10-15T02:27:01.020Z,101630
2023-10-15T02:28:00.840Z,101620
2023-10-15T02:29:00.894Z,101620
2023-10-15T02:30:01.245Z,101620
2023-10-15T02:31:01.418Z,101620
2023-10-15T02:32:01.235Z,101620
2023-10-15T02:33:00.853Z,101620
2023-10-15T02:34:00.895Z,101620
2023-10-15T02:35:00.841Z,101610
2023-10-15T02:36:01.272Z,101610
2023-10-15T02:37:00.787Z,101610
2023-10-15T02:38:00.814Z,101610
2023-10-15T02:39:00.811Z,101610
2023-10-15T02:40:00.826Z,101610
2023-10-15T02:41:01.109Z,101620
2023-10-15T02:42:00.772Z,101610
2023-10-15T02:43:01.174Z,101610
2023-10-15T02:44:00.795Z,101610
2023-10-15T02:45:01.286Z,101620
2023-10-15T02:46:00.771Z,101620
2023-10-15T02:47:00.964Z,101620
2023-10-15T02:48:00.776Z,101620
2023-10-15T02:49:00.771Z,101610
2023-10-15T02:50:00.829Z,101620
2023-10-15T02:51:00.806Z,101610
2023-10-15T02:52:00.774Z,101610
2023-10-15T02:53:00.831Z,101610
2023-10-15T02:54:00.816Z,101610
2023-10-15T02:55:01.213Z,101610
2023-10-15T02:56:00.942Z,101610
2023-10-15T02:57:00.802Z,101610
2023-10-15T02:58:00.883Z,101610
2023-10-15T02:59:00.823Z,101610
2023-10-15T03:00:00.854Z,101610
2023-10-15T03:01:00.966Z,101610
2023-10-15T03:02:00.935Z,101610
2023-10-15T03:03:00.827Z,101610
2023-10-15T03:04:00.857Z,101610
2023-10-15T03:05:00.844Z,101610
2023-10-15T03:06:01.776Z,101610
2023-10-15T03:07:00.885Z,101610
2023-10-15T03:08:00.819Z,101610
2023-10-15T03:09:01.021Z,101610
2023-10-15T03:10:00.812Z,101610
2023-10-15T03:11:01.479Z,101600
2023-10-15T03:12:00.756Z,101600
2023-10-15T03:13:00.796Z,101600
2023-10-15T03:14:00.825Z,101600
2023-10-15T03:15:00.802Z,101600
2023-10-15T03:16:01.933Z,101600
2023-10-15T03:17:00.919Z,101600
2023-10-15T03:18:00.906Z,101600
2023-10-15T03:19:01.184Z,101600
2023-10-15T03:20:00.835Z,101600
2023-10-15T03:21:00.788Z,101600
2023-10-15T03:22:00.816Z,101600
2023-10-15T03:23:00.807Z,101600
2023-10-15T03:24:00.835Z,101600
2023-10-15T03:25:00.879Z,101600
2023-10-15T03:26:00.834Z,101600
2023-10-15T03:27:00.984Z,101610
2023-10-15T03:28:00.777Z,101610
2023-10-15T03:29:01.668Z,101610
2023-10-15T03:30:00.793Z,101610
2023-10-15T03:31:00.834Z,101610
2023-10-15T03:32:00.968Z,101610
2023-10-15T03:33:00.835Z,101610
2023-10-15T03:34:00.772Z,101610
2023-10-15T03:35:00.838Z,101610
2023-10-15T03:36:00.813Z,101600
2023-10-15T03:37:00.769Z,101610
2023-10-15T03:38:00.777Z,101610
2023-10-15T03:39:00.841Z,101600
2023-10-15T03:40:00.884Z,101610
2023-10-15T03:41:00.931Z,101610
2023-10-15T03:42:00.844Z,101610
2023-10-15T03:43:00.815Z,101610
2023-10-15T03:44:00.765Z,101610
2023-10-15T03:45:00.836Z,101610
2023-10-15T03:46:01.242Z,101610
2023-10-15T03:47:00.797Z,101610
2023-10-15T03:48:00.838Z,101610
2023-10-15T03:49:00.796Z,101600
2023-10-15T03:50:00.813Z,101610
2023-10-15T03:51:02.696Z,101600
2023-10-15T03:52:00.803Z,101610
2023-10-15T03:53:00.823Z,101610
2023-10-15T03:54:00.756Z,101610
2023-10-15T03:55:00.742Z,101610
2023-10-15T03:56:01.496Z,101610
2023-10-15T03:57:00.779Z,101610
2023-10-15T03:58:00.748Z,101610
2023-10-15T03:59:01.640Z,101600
2023-10-15T04:00:00.900Z,101600
2023-10-15T04:01:01.296Z,101610
2023-10-15T04:02:01.072Z,101600
2023-10-15T04:03:00.855Z,101600
2023-10-15T04:04:00.854Z,101600
2023-10-15T04:05:00.781Z,101600
2023-10-15T04:06:00.838Z,101600
2023-10-15T04:07:00.801Z,101600
2023-10-15T04:08:00.888Z,101600
2023-10-15T04:09:00.802Z,101590
2023-10-15T04:10:00.870Z,101600
2023-10-15T04:11:00.779Z,101600
2023-10-15T04:12:00.789Z,101600
2023-10-15T04:13:01.044Z,101600
2023-10-15T04:14:00.808Z,101600
2023-10-15T04:15:01.637Z,101600
2023-10-15T04:16:01.006Z,101600
2023-10-15T04:17:00.953Z,101600
2023-10-15T04:18:00.895Z,101610
2023-10-15T04:19:00.847Z,101600
2023-10-15T04:20:00.885Z,101600
2023-10-15T04:21:00.769Z,101600
2023-10-15T04:22:00.786Z,101600
2023-10-15T04:23:00.969Z,101600
2023-10-15T04:24:01.024Z,101600
2023-10-15T04:25:00.816Z,101600
2023-10-15T04:26:06.666Z,101610
2023-10-15T04:27:00.773Z,101610
2023-10-15T04:28:01.063Z,101610
2023-10-15T04:29:00.862Z,101610
2023-10-15T04:30:00.765Z,101610
2023-10-15T04:31:05.188Z,101610
2023-10-15T04:32:00.860Z,101610
2023-10-15T04:33:00.842Z,101610
2023-10-15T04:34:00.768Z,101610
2023-10-15T04:35:00.839Z,101610
2023-10-15T04:36:00.765Z,101610
2023-10-15T04:37:00.766Z,101600
2023-10-15T04:38:00.845Z,101610
2023-10-15T04:39:00.795Z,101610
2023-10-15T04:40:17.190Z,101600
2023-10-15T04:41:00.830Z,101600
2023-10-15T04:42:00.779Z,101610
2023-10-15T04:43:00.778Z,101600
2023-10-15T04:44:00.801Z,101600
2023-10-15T04:45:00.814Z,101600
2023-10-15T04:46:00.909Z,101600
2023-10-15T04:47:00.805Z,101600
2023-10-15T04:48:01.415Z,101600
2023-10-15T04:49:00.776Z,101600
2023-10-15T04:50:00.917Z,101600
2023-10-15T04:51:00.787Z,101600
2023-10-15T04:52:00.793Z,101600
2023-10-15T04:53:01.194Z,101590
2023-10-15T04:54:00.785Z,101590
2023-10-15T04:55:00.791Z,101590
2023-10-15T04:56:00.870Z,101590
2023-10-15T04:57:00.855Z,101590
2023-10-15T04:58:00.757Z,101590
2023-10-15T04:59:00.914Z,101590
2023-10-15T05:00:00.805Z,101590
2023-10-15T05:01:01.030Z,101580
2023-10-15T05:02:00.831Z,101580
2023-10-15T05:03:00.949Z,101580
2023-10-15T05:04:01.160Z,101580
2023-10-15T05:05:00.961Z,101580
2023-10-15T05:06:01.506Z,101580
2023-10-15T05:07:00.797Z,101580
2023-10-15T05:08:00.899Z,101580
2023-10-15T05:09:01.159Z,101580
2023-10-15T05:10:00.798Z,101580
2023-10-15T05:11:00.803Z,101570
2023-10-15T05:12:00.819Z,101570
2023-10-15T05:13:00.854Z,101570
2023-10-15T05:14:00.803Z,101570
2023-10-15T05:15:00.764Z,101570
2023-10-15T05:16:00.850Z,101570
2023-10-15T05:17:00.829Z,101580
2023-10-15T05:18:00.852Z,101570
2023-10-15T05:19:02.079Z,101570
2023-10-15T05:20:00.825Z,101570
2023-10-15T05:21:00.818Z,101570
2023-10-15T05:22:00.752Z,101570
2023-10-15T05:23:00.829Z,101570
2023-10-15T05:24:00.784Z,101570
2023-10-15T05:25:00.792Z,101570
2023-10-15T05:26:00.814Z,101570
2023-10-15T05:27:00.778Z,101570
2023-10-15T05:28:01.176Z,101570
2023-10-15T05:29:00.867Z,101570
2023-10-15T05:30:00.932Z,101570
2023-10-15T05:31:00.781Z,101570
2023-10-15T05:32:00.862Z,101570
2023-10-15T05:33:01.019Z,101570
2023-10-15T05:34:00.747Z,101570
2023-10-15T05:35:01.060Z,101580
2023-10-15T05:36:00.779Z,101570
2023-10-15T05:37:00.766Z,101580
2023-10-15T05:38:00.871Z,101580
2023-10-15T05:39:00.777Z,101580
2023-10-15T05:40:00.789Z,101580
2023-10-15T05:41:00.945Z,101570
2023-10-15T05:42:00.784Z,101580
2023-10-15T05:43:00.862Z,101580
2023-10-15T05:44:00.859Z,101580
2023-10-15T05:45:01.006Z,101580
2023-10-15T05:46:00.798Z,101580
2023-10-15T05:47:00.975Z,101580
2023-10-15T05:48:00.888Z,101580
2023-10-15T05:49:00.770Z,101580
2023-10-15T05:50:01.110Z,101570
2023-10-15T05:51:00.790Z,101570
2023-10-15T05:52:00.859Z,101570
2023-10-15T05:53:00.830Z,101570
2023-10-15T05:54:00.798Z,101570
2023-10-15T05:55:00.879Z,101570
2023-10-15T05:56:00.939Z,101570
2023-10-15T05:57:00.757Z,101570
2023-10-15T05:58:00.797Z,101570
2023-10-15T05:59:00.841Z,101580
2023-10-15T06:00:00.838Z,101580
2023-10-15T06:01:00.773Z,101580
2023-10-15T06:02:01.055Z,101580
2023-10-15T06:03:01.016Z,101580
2023-10-15T06:04:00.826Z,101580
2023-10-15T06:05:00.825Z,101580
2023-10-15T06:06:00.786Z,101590
2023-10-15T06:07:00.781Z,101590
2023-10-15T06:08:00.747Z,101590
2023-10-15T06:09:00.816Z,101590
2023-10-15T06:10:00.820Z,101590
2023-10-15T06:11:00.775Z,101590
2023-10-15T06:12:00.948Z,101590
2023-10-15T06:13:00.772Z,101590
2023-10-15T06:14:00.855Z,101590
2023-10-15T06:15:00.810Z,101590
2023-10-15T06:16:00.826Z,101590
2023-10-15T06:17:00.918Z,101590
2023-10-15T06:18:00.999Z,101590
2023-10-15T06:19:00.787Z,101590
2023-10-15T06:20:01.356Z,101590
2023-10-15T06:21:00.815Z,101590
2023-10-15T06:22:00.791Z,101590
2023-10-15T06:23:00.978Z,101590
2023-10-15T06:24:00.815Z,101590
2023-10-15T06:25:00.866Z,101600
2023-10-15T06:26:00.899Z,101600
2023-10-15T06:27:00.792Z,101590
2023-10-15T06:28:01.048Z,101590
2023-10-15T06:29:00.837Z,101590
2023-10-15T06:30:00.767Z,101590
2023-10-15T06:31:00.797Z,101590
2023-10-15T06:32:00.835Z,101590
2023-10-15T06:33:00.821Z,101590
2023-10-15T06:34:00.774Z,101590
2023-10-15T06:35:00.807Z,101590
2023-10-15T06:36:00.828Z,101580
2023-10-15T06:37:00.791Z,101580
2023-10-15T06:38:00.888Z,101580
2023-10-15T06:39:00.807Z,101580
2023-10-15T06:40:15.036Z,101580
2023-10-15T06:41:00.801Z,101580
2023-10-15T06:42:00.933Z,101580
2023-10-15T06:43:00.760Z,101580
2023-10-15T06:44:00.845Z,101580
2023-10-15T06:45:00.994Z,101580
2023-10-15T06:46:04.394Z,101580
2023-10-15T06:47:00.865Z,101580
2023-10-15T06:48:01.385Z,101580
2023-10-15T06:49:00.794Z,101580
2023-10-15T06:50:01.191Z,101580
2023-10-15T06:51:01.095Z,101570
2023-10-15T06:52:00.757Z,101580
2023-10-15T06:53:00.828Z,101580
2023-10-15T06:54:00.855Z,101580
2023-10-15T06:55:00.750Z,101580
2023-10-15T06:56:01.318Z,101580
2023-10-15T06:57:00.742Z,101580
2023-10-15T06:58:01.026Z,101580
2023-10-15T06:59:00.810Z,101580
2023-10-15T07:00:00.784Z,101580
2023-10-15T07:01:00.798Z,101590
2023-10-15T07:02:00.813Z,101590
2023-10-15T07:03:00.901Z,101590
2023-10-15T07:04:00.853Z,101590
2023-10-15T07:05:01.587Z,101590
2023-10-15T07:06:00.803Z,101590
2023-10-15T07:07:00.810Z,101600
2023-10-15T07:08:00.859Z,101590
2023-10-15T07:09:00.885Z,101600
2023-10-15T07:10:02.585Z,101600
2023-10-15T07:11:00.820Z,101600
2023-10-15T07:12:00.828Z,101600
2023-10-15T07:13:00.788Z,101600
2023-10-15T07:14:01.071Z,101600
2023-10-15T07:15:00.771Z,101600
2023-10-15T07:16:00.788Z,101600
2023-10-15T07:17:00.822Z,101600
2023-10-15T07:18:00.891Z,101600
2023-10-15T07:19:00.819Z,101610
2023-10-15T07:20:01.102Z,101610
2023-10-15T07:21:00.758Z,101610
2023-10-15T07:22:00.800Z,101610
2023-10-15T07:23:00.832Z,101610
2023-10-15T07:24:00.800Z,101610
2023-10-15T07:25:00.764Z,101600
2023-10-15T07:26:00.823Z,101610
2023-10-15T07:27:00.778Z,101610
2023-10-15T07:28:01.111Z,101600
2023-10-15T07:29:00.819Z,101610
2023-10-15T07:30:00.858Z,101610
2023-10-15T07:31:01.089Z,101610
2023-10-15T07:32:00.862Z,101610
2023-10-15T07:33:01.222Z,101610
2023-10-15T07:34:00.802Z,101610
2023-10-15T07:35:01.073Z,101610
2023-10-15T07:36:00.806Z,101610
2023-10-15T07:37:00.765Z,101610
2023-10-15T07:38:01.073Z,101610
2023-10-15T07:39:00.864Z,101610
2023-10-15T07:40:01.890Z,101620
2023-10-15T07:41:01.955Z,101620
2023-10-15T07:42:00.853Z,101620
2023-10-15T07:43:01.555Z,101620
2023-10-15T07:44:01.061Z,101620
2023-10-15T07:45:00.798Z,101620
2023-10-15T07:46:00.817Z,101630
2023-10-15T07:47:00.932Z,101630
2023-10-15T07:48:02.245Z,101620
2023-10-15T07:49:00.794Z,101620
2023-10-15T07:50:00.817Z,101620
2023-10-15T07:51:00.795Z,101620
2023-10-15T07:52:00.771Z,101620
2023-10-15T07:53:01.350Z,101630
2023-10-15T07:54:00.838Z,101620
2023-10-15T07:55:01.266Z,101630
2023-10-15T07:56:00.792Z,101620
2023-10-15T07:57:00.823Z,101630
2023-10-15T07:58:00.800Z,101630
2023-10-15T07:59:04.656Z,101630
2023-10-15T08:00:00.840Z,101630
2023-10-15T08:01:11.447Z,101630
2023-10-15T08:02:00.846Z,101630
2023-10-15T08:03:01.885Z,101630
2023-10-15T08:04:01.047Z,101630
2023-10-15T08:05:02.337Z,101640
2023-10-15T08:06:01.414Z,101640
2023-10-15T08:07:01.133Z,101640
2023-10-15T08:08:01.105Z,101650
2023-10-15T08:09:00.831Z,101640
2023-10-15T08:10:00.811Z,101650
2023-10-15T08:11:01.495Z,101650
2023-10-15T08:12:00.807Z,101650
2023-10-15T08:13:00.843Z,101650
2023-10-15T08:14:00.937Z,101650
2023-10-15T08:15:00.919Z,101650
2023-10-15T08:16:00.753Z,101650
2023-10-15T08:17:00.851Z,101650
2023-10-15T08:18:01.361Z,101650
2023-10-15T08:19:00.793Z,101650
2023-10-15T08:20:00.842Z,101650
2023-10-15T08:21:00.901Z,101650
2023-10-15T08:22:00.777Z,101650
2023-10-15T08:23:00.855Z,101650
2023-10-15T08:24:00.812Z,101650
2023-10-15T08:25:00.770Z,101650
2023-10-15T08:26:00.860Z,101650
2023-10-15T08:27:00.985Z,101650
2023-10-15T08:28:00.965Z,101650
2023-10-15T08:29:00.836Z,101640
2023-10-15T08:30:00.790Z,101640
2023-10-15T08:31:00.799Z,101640
2023-10-15T08:32:00.931Z,101640
2023-10-15T08:33:00.846Z,101640
2023-10-15T08:34:00.785Z,101640
2023-10-15T08:35:00.827Z,101640
2023-10-15T08:36:00.824Z,101640
2023-10-15T08:37:00.859Z,101640
2023-10-15T08:38:00.971Z,101640
2023-10-15T08:39:00.838Z,101640
2023-10-15T08:40:01.215Z,101640
2023-10-15T08:41:03.697Z,101640
2023-10-15T08:42:02.550Z,101630
2023-10-15T08:43:01.792Z,101630
2023-10-15T08:44:00.867Z,101630
2023-10-15T08:45:00.853Z,101630
2023-10-15T08:46:02.962Z,101630
2023-10-15T08:47:02.187Z,101630
2023-10-15T08:48:01.892Z,101630
2023-10-15T08:49:01.985Z,101620
2023-10-15T08:50:01.192Z,101630
2023-10-15T08:51:01.561Z,101620
2023-10-15T08:52:01.154Z,101630
2023-10-15T08:53:01.219Z,101630
2023-10-15T08:54:02.088Z,101620
2023-10-15T08:55:00.932Z,101620
2023-10-15T08:56:01.199Z,101620
2023-10-15T08:57:00.804Z,101610
2023-10-15T08:58:00.840Z,101610
2023-10-15T08:59:01.032Z,101610
2023-10-15T09:00:01.166Z,101610
2023-10-15T09:01:00.837Z,101610
2023-10-15T09:02:00.980Z,101610
2023-10-15T09:03:00.985Z,101610
2023-10-15T09:04:00.908Z,101610
2023-10-15T09:05:00.838Z,101610
2023-10-15T09:06:00.881Z,101610
2023-10-15T09:07:01.028Z,101610
2023-10-15T09:08:01.241Z,101610
2023-10-15T09:09:00.772Z,101610
2023-10-15T09:10:00.888Z,101610
2023-10-15T09:11:01.170Z,101610
2023-10-15T09:12:01.054Z,101620
2023-10-15T09:13:00.806Z,101620
2023-10-15T09:14:00.841Z,101620
2023-10-15T09:15:00.762Z,101620
2023-10-15T09:16:00.882Z,101620
2023-10-15T09:17:00.894Z,101620
2023-10-15T09:18:00.844Z,101620
2023-10-15T09:19:00.813Z,101620
2023-10-15T09:20:00.824Z,101620
2023-10-15T09:21:01.727Z,101610
2023-10-15T09:22:00.844Z,101610
2023-10-15T09:23:04.108Z,101620
2023-10-15T09:24:02.241Z,101610
2023-10-15T09:25:00.812Z,101610
2023-10-15T09:26:01.076Z,101610
2023-10-15T09:27:01.195Z,101620
2023-10-15T09:28:01.099Z,101620
2023-10-15T09:29:00.869Z,101620
2023-10-15T09:30:08.328Z,101620
2023-10-15T09:31:02.680Z,101620
2023-10-15T09:32:01.856Z,101620
2023-10-15T09:33:00.824Z,101620
2023-10-15T09:34:00.771Z,101620
2023-10-15T09:35:00.835Z,101630
2023-10-15T09:36:02.146Z,101620
2023-10-15T09:37:00.752Z,101630
2023-10-15T09:38:00.815Z,101630
2023-10-15T09:39:04.089Z,101630
2023-10-15T09:40:00.761Z,101630
2023-10-15T09:41:02.473Z,101630
2023-10-15T09:42:00.884Z,101630
2023-10-15T09:43:01.184Z,101630
2023-10-15T09:44:01.369Z,101630
2023-10-15T09:45:01.370Z,101630
2023-10-15T09:46:01.268Z,101630
2023-10-15T09:47:00.875Z,101630
2023-10-15T09:48:02.281Z,101640
2023-10-15T09:49:01.335Z,101640
2023-10-15T09:50:01.802Z,101640
2023-10-15T09:51:01.632Z,101640
2023-10-15T09:52:01.388Z,101640
2023-10-15T09:53:00.789Z,101650
2023-10-15T09:54:01.188Z,101650
2023-10-15T09:55:01.031Z,101650
2023-10-15T09:56:00.893Z,101640
2023-10-15T09:57:01.209Z,101650
2023-10-15T09:58:02.833Z,101640
2023-10-15T09:59:01.572Z,101640
2023-10-15T10:00:00.830Z,101640
2023-10-15T10:01:03.000Z,101650
2023-10-15T10:02:02.300Z,101640
2023-10-15T10:03:20.598Z,101640
2023-10-15T10:04:09.955Z,101640
2023-10-15T10:05:00.883Z,101640
2023-10-15T10:06:31.693Z,101640
2023-10-15T10:07:05.570Z,101640
2023-10-15T10:08:09.762Z,101640
2023-10-15T10:09:31.652Z,101640
2023-10-15T10:10:31.639Z,101650
2023-10-15T10:11:08.119Z,101650
2023-10-15T10:12:31.623Z,101650
2023-10-15T10:13:00.773Z,101650
2023-10-15T10:14:00.854Z,101650
2023-10-15T10:15:31.656Z,101650
2023-10-15T10:16:06.127Z,101650
2023-10-15T10:17:02.008Z,101660
2023-10-15T10:18:02.775Z,101660
2023-10-15T10:19:01.132Z,101660
2023-10-15T10:20:01.552Z,101660
2023-10-15T10:21:07.042Z,101650
2023-10-15T10:22:00.798Z,101660
2023-10-15T10:23:01.655Z,101660
2023-10-15T10:24:00.864Z,101650
2023-10-15T10:25:01.451Z,101660
2023-10-15T10:26:10.048Z,101650
2023-10-15T10:27:12.210Z,101660
2023-10-15T10:28:16.659Z,101660
2023-10-15T10:29:00.988Z,101660
2023-10-15T10:30:31.637Z,101670
2023-10-15T10:31:00.804Z,101670
2023-10-15T10:32:00.925Z,101660
2023-10-15T10:33:01.373Z,101660
2023-10-15T10:34:00.781Z,101660
2023-10-15T10:35:17.150Z,101660
2023-10-15T10:36:10.011Z,101660
2023-10-15T10:37:00.852Z,101660
2023-10-15T10:38:01.624Z,101660
2023-10-15T10:39:09.687Z,101660
2023-10-15T10:40:00.787Z,101660
2023-10-15T10:41:11.930Z,101660
2023-10-15T10:42:00.848Z,101660
2023-10-15T10:43:00.986Z,101660
2023-10-15T10:44:18.387Z,101650
2023-10-15T10:45:00.799Z,101650
2023-10-15T10:46:01.290Z,101660
2023-10-15T10:47:17.076Z,101650
2023-10-15T10:48:01.213Z,101650
2023-10-15T10:49:02.664Z,101650
2023-10-15T10:50:01.171Z,101650
2023-10-15T10:51:08.207Z,101640
2023-10-15T10:52:04.091Z,101650
2023-10-15T10:53:10.777Z,101650
2023-10-15T10:54:00.770Z,101650
2023-10-15T10:55:31.666Z,101650
2023-10-15T10:56:04.606Z,101650
2023-10-15T10:57:01.220Z,101650
2023-10-15T10:58:07.656Z,101650
2023-10-15T10:59:00.844Z,101650
2023-10-15T11:00:03.654Z,101640
2023-10-15T11:01:00.822Z,101650
2023-10-15T11:02:00.937Z,101640
2023-10-15T11:03:01.011Z,101640
2023-10-15T11:04:01.584Z,101640
2023-10-15T11:05:01.338Z,101640
2023-10-15T11:06:00.780Z,101640
2023-10-15T11:07:00.799Z,101640
2023-10-15T11:08:00.805Z,101640
2023-10-15T11:09:04.124Z,101640
2023-10-15T11:10:04.169Z,101640
2023-10-15T11:11:00.899Z,101640
2023-10-15T11:12:00.834Z,101640
2023-10-15T11:13:00.792Z,101640
2023-10-15T11:14:00.842Z,101640
2023-10-15T11:15:00.896Z,101640
2023-10-15T11:16:00.846Z,101640
2023-10-15T11:17:00.809Z,101640
2023-10-15T11:18:00.875Z,101640
2023-10-15T11:19:00.804Z,101640
2023-10-15T11:20:01.243Z,101630
2023-10-15T11:21:00.919Z,101630
2023-10-15T11:22:00.890Z,101630
2023-10-15T11:23:00.882Z,101640
2023-10-15T11:24:00.837Z,101630
2023-10-15T11:25:00.766Z,101630
2023-10-15T11:26:00.913Z,101630
2023-10-15T11:27:01.558Z,101620
2023-10-15T11:28:01.328Z,101630
2023-10-15T11:29:00.842Z,101630
2023-10-15T11:30:00.814Z,101620
2023-10-15T11:31:01.356Z,101620
2023-10-15T11:32:00.967Z,101640
2023-10-15T11:33:01.019Z,101630
2023-10-15T11:34:00.811Z,101620
2023-10-15T11:35:00.817Z,101630
2023-10-15T11:36:00.784Z,101630
2023-10-15T11:37:00.844Z,101620
2023-10-15T11:38:08.643Z,101620
2023-10-15T11:39:02.492Z,101620
2023-10-15T11:40:00.897Z,101610
2023-10-15T11:41:01.986Z,101610
2023-10-15T11:42:00.971Z,101610
2023-10-15T11:43:00.755Z,101610
2023-10-15T11:44:01.486Z,101610
2023-10-15T11:45:00.779Z,101610
2023-10-15T11:46:01.375Z,101610
2023-10-15T11:47:00.862Z,101610
2023-10-15T11:48:00.838Z,101600
2023-10-15T11:49:01.290Z,101600
2023-10-15T11:50:01.232Z,101600
2023-10-15T11:51:01.001Z,101600
2023-10-15T11:52:03.048Z,101600
2023-10-15T11:53:00.923Z,101590
2023-10-15T11:54:00.752Z,101600
2023-10-15T11:55:01.925Z,101600
2023-10-15T11:56:00.848Z,101600
2023-10-15T11:57:00.753Z,101610
2023-10-15T11:58:00.772Z,101600
2023-10-15T11:59:00.770Z,101610
2023-10-15T12:00:00.767Z,101600
2023-10-15T12:01:01.059Z,101590
2023-10-15T12:02:00.803Z,101590
2023-10-15T12:03:01.236Z,101650
2023-10-15T12:04:00.907Z,101460
2023-10-15T12:05:00.822Z,101310
2023-10-15T12:06:00.749Z,101190
2023-10-15T12:07:00.773Z,101090
2023-10-15T12:08:02.102Z,101310
2023-10-15T12:09:00.754Z,101130
2023-10-15T12:10:00.771Z,101050
2023-10-15T12:11:00.958Z,101030
2023-10-15T12:12:00.787Z,101030
2023-10-15T12:13:00.815Z,101070
2023-10-15T12:14:00.798Z,100980
2023-10-15T12:15:00.906Z,101330
2023-10-15T12:16:00.856Z,101160
2023-10-15T12:17:00.874Z,101240
2023-10-15T12:18:00.987Z,101270
2023-10-15T12:19:00.780Z,101270
2023-10-15T12:20:18.414Z,101270
2023-10-15T12:21:00.760Z,101260
2023-10-15T12:22:00.784Z,101260
2023-10-15T12:23:00.901Z,101270
2023-10-15T12:24:00.777Z,101220
2023-10-15T12:25:00.788Z,101250
2023-10-15T12:26:00.877Z,101280
2023-10-15T12:27:00.801Z,101290
2023-10-15T12:28:00.802Z,101280